createdAt,value
2018-12-14T06:00:29.294Z,77.10
2018-12-14T06:03:02.980Z,76.60
2018-12-14T06:05:36.866Z,76.70
2018-12-14T06:08:14.490Z,76.70
2018-12-14T06:10:49.123Z,77.40
2018-12-14T06:13:23.143Z,77.70
2018-12-14T06:15:57.144Z,77.40
2018-12-14T06:18:31.015Z,76.80
2018-12-14T06:21:05.451Z,76.40
2018-12-14T06:23:38.634Z,76.30
2018-12-14T06:26:12.618Z,76.90
2018-12-14T06:28:46.310Z,77.20
2018-12-14T06:31:20.284Z,77.70
2018-12-14T06:33:55.701Z,77.00
2018-12-14T06:36:32.823Z,76.40
2018-12-14T06:39:08.254Z,76.20
2018-12-14T06:41:43.073Z,76.70
2018-12-14T06:44:18.731Z,76.80
2018-12-14T06:46:54.868Z,77.70
2018-12-14T06:49:24.080Z,77.20
2018-12-14T06:51:59.128Z,77.00
2018-12-14T06:54:43.239Z,76.30
2018-12-14T06:57:28.340Z,76.40
2018-12-14T07:00:09.547Z,76.60
2018-12-14T07:02:43.578Z,77.10
2018-12-14T07:05:19.389Z,76.70
2018-12-14T07:08:02.132Z,76.50
2018-12-14T07:10:36.646Z,76.40
2018-12-14T07:13:10.164Z,76.60
2018-12-14T07:15:58.314Z,76.40
2018-12-14T07:18:39.240Z,76.30
2018-12-14T07:21:21.131Z,76.60
2018-12-14T07:23:54.194Z,77.30
2018-12-14T07:26:28.990Z,76.60
2018-12-14T07:29:07.895Z,76.10
2018-12-14T07:31:46.747Z,76.60
2018-12-14T07:34:21.412Z,76.80
2018-12-14T07:36:55.771Z,76.40
2018-12-14T07:39:29.801Z,76.80
2018-12-14T07:42:03.939Z,77.40
2018-12-14T16:32:04.952Z,73.60
2018-12-14T16:34:42.416Z,74.00
2018-12-14T16:40:18.340Z,72.90
2018-12-14T16:43:03.026Z,72.10
2018-12-14T16:45:36.536Z,72.00
2018-12-14T16:48:10.946Z,71.50
2018-12-14T16:50:45.756Z,72.30
2018-12-14T16:53:18.950Z,73.10
2018-12-14T16:55:53.271Z,73.60
2018-12-14T16:58:34.084Z,72.50
2018-12-14T17:01:10.337Z,72.60
2018-12-14T17:03:42.748Z,72.80
2018-12-14T17:06:29.555Z,73.20
2018-12-14T17:09:05.572Z,72.80
2018-12-14T17:11:52.705Z,72.70
2018-12-14T17:14:25.860Z,73.50
2018-12-14T17:17:10.151Z,73.50
2018-12-14T17:26:02.368Z,72.90
2018-12-14T17:28:36.121Z,73.40
2018-12-14T17:31:12.314Z,73.50
2018-12-14T17:33:46.614Z,73.60
2018-12-14T17:36:32.845Z,73.90
2018-12-14T17:39:07.250Z,73.20
2018-12-14T17:41:43.426Z,74.80
2018-12-14T17:44:19.797Z,73.00
2018-12-14T17:46:58.021Z,73.50
2018-12-14T17:49:32.943Z,73.30
2018-12-14T17:52:07.304Z,73.80
2018-12-14T17:54:41.910Z,72.60
2018-12-14T17:57:19.341Z,73.50
2018-12-14T17:59:53.105Z,73.40
2018-12-14T18:02:26.898Z,74.10
2018-12-14T18:05:05.370Z,74.60
2018-12-14T18:07:39.940Z,74.30
2018-12-14T18:10:21.258Z,74.00
2018-12-14T18:12:56.343Z,73.80
2018-12-14T18:15:30.500Z,73.50
2018-12-14T18:18:03.530Z,74.20
2018-12-14T18:20:37.252Z,74.00
2018-12-14T18:23:12.393Z,73.20
2018-12-14T18:25:46.833Z,73.20
2018-12-14T18:28:21.401Z,72.90
2018-12-14T18:30:58.526Z,73.30
2018-12-14T18:33:33.337Z,74.30
2018-12-14T18:36:08.843Z,73.40
2018-12-14T18:38:50.794Z,73.60
2018-12-14T18:41:37.602Z,74.60
2018-12-14T18:44:21.300Z,74.60
2018-12-14T18:46:57.122Z,74.20
2018-12-14T18:52:23.784Z,73.70
2018-12-14T18:55:12.306Z,74.40
2018-12-14T19:06:49.045Z,74.50
2018-12-14T19:09:23.149Z,74.70
2018-12-14T19:14:50.185Z,73.40
2018-12-14T19:17:25.817Z,74.30
2018-12-14T19:20:00.165Z,74.40
2018-12-14T19:22:34.909Z,74.70
2018-12-14T19:25:13.523Z,73.90
2018-12-14T19:27:47.605Z,74.30
2018-12-14T19:30:24.318Z,74.10
2018-12-14T19:33:03.653Z,74.90
2018-12-14T19:35:42.271Z,75.30
2018-12-14T19:38:23.940Z,75.20
2018-12-14T19:40:57.693Z,74.40
2018-12-14T19:43:31.928Z,74.40
2018-12-14T19:46:06.712Z,74.20
2018-12-14T19:48:53.596Z,74.40
2018-12-14T19:51:27.595Z,73.80
2018-12-14T19:54:15.607Z,74.50
2018-12-14T19:56:57.916Z,74.50
2018-12-14T19:59:34.815Z,73.80
2018-12-14T20:02:10.811Z,74.90
2018-12-14T20:04:55.826Z,74.50
2018-12-14T20:07:31.121Z,74.00
2018-12-14T20:10:06.026Z,74.30
2018-12-14T20:12:44.484Z,74.10
2018-12-14T20:15:18.436Z,74.20
2018-12-14T20:17:54.862Z,74.40
2018-12-14T20:20:26.153Z,74.50
2018-12-14T20:22:59.609Z,74.20
2018-12-14T20:25:33.255Z,75.40
2018-12-14T20:28:07.279Z,74.20
2018-12-14T20:30:40.755Z,74.20
2018-12-14T20:33:24.964Z,74.60
2018-12-14T20:36:00.140Z,74.30
2018-12-14T20:38:34.029Z,74.80
2018-12-14T20:41:07.069Z,74.60
2018-12-14T20:43:41.581Z,75.10
2018-12-14T20:46:19.258Z,75.80
2018-12-14T20:48:51.566Z,75.80
2018-12-14T20:51:25.344Z,75.70
2018-12-14T20:53:59.366Z,76.00
2018-12-14T20:56:35.213Z,75.40
2018-12-14T20:59:09.516Z,75.50
2018-12-14T21:01:43.069Z,74.90
2018-12-14T21:04:16.791Z,75.20
2018-12-14T21:06:50.474Z,76.20
2018-12-14T21:09:24.263Z,75.30
2018-12-14T21:12:02.225Z,75.00
2018-12-14T21:14:36.439Z,75.30
2018-12-14T21:17:10.542Z,74.90
2018-12-14T21:19:54.690Z,76.10
2018-12-14T21:22:26.618Z,75.90
2018-12-14T21:25:00.935Z,75.80
2018-12-14T21:27:34.860Z,75.20
2018-12-14T21:30:08.570Z,76.30
2018-12-14T21:32:41.870Z,76.50
2018-12-14T21:35:13.480Z,76.30
2018-12-14T21:37:46.717Z,75.70
2018-12-14T21:40:20.550Z,75.70
2018-12-14T21:42:54.382Z,76.00
2018-12-14T21:45:28.135Z,76.70
2018-12-14T21:48:01.860Z,77.30
2018-12-14T21:50:37.537Z,76.80
2018-12-14T21:53:14.480Z,76.60
2018-12-14T21:55:46.733Z,76.00
2018-12-14T21:58:20.463Z,76.70
2018-12-14T22:00:54.094Z,76.30
2018-12-14T22:03:29.862Z,76.80
2018-12-14T22:06:03.628Z,76.60
2018-12-14T22:08:34.892Z,76.40
2018-12-14T22:11:08.271Z,76.60
2018-12-14T22:13:43.085Z,77.60
2018-12-14T22:16:16.930Z,76.00
2018-12-14T22:18:50.819Z,76.10
2018-12-14T22:21:24.525Z,75.20
2018-12-14T22:24:05.983Z,75.70
2018-12-14T22:26:37.432Z,76.10
